createdAt,value
2018-10-03T00:01:30.624Z,100727.84
2018-10-03T00:03:59.193Z,100743.44
2018-10-03T00:06:27.736Z,100725.16
2018-10-03T00:08:56.407Z,100722.89
2018-10-03T00:11:24.980Z,100715.73
2018-10-03T00:13:53.532Z,100715.60
2018-10-03T00:16:22.065Z,100714.73
2018-10-03T00:18:50.641Z,100717.66
2018-10-03T00:21:19.268Z,100720.61
2018-10-03T00:23:48.095Z,100714.36
2018-10-03T00:26:16.697Z,100720.05
2018-10-03T00:28:45.219Z,100722.95
2018-10-03T00:31:13.877Z,100722.48
2018-10-03T00:33:42.656Z,100718.85
2018-10-03T00:36:11.357Z,100713.39
2018-10-03T00:38:40.126Z,100724.19
2018-10-03T00:41:09.184Z,100725.33
2018-10-03T00:43:38.179Z,100716.47
2018-10-03T00:46:07.518Z,100716.30
2018-10-03T00:48:36.131Z,100723.38
2018-10-03T00:51:04.695Z,100721.05
2018-10-03T00:53:33.404Z,100714.11
2018-10-03T00:56:01.956Z,100710.56
2018-10-03T00:58:30.557Z,100709.58
2018-10-03T01:00:59.228Z,100710.60
2018-10-03T01:03:27.880Z,100708.98
2018-10-03T01:05:56.490Z,100715.59
2018-10-03T01:08:25.137Z,100711.83
2018-10-03T01:10:53.732Z,100710.72
2018-10-03T01:13:22.312Z,100711.89
2018-10-03T01:15:50.956Z,100712.80
2018-10-03T01:18:19.589Z,100716.52
2018-10-03T01:20:48.208Z,100720.70
2018-10-03T01:23:16.853Z,100725.97
2018-10-03T01:25:45.444Z,100725.59
2018-10-03T01:28:14.166Z,100722.99
2018-10-03T01:30:42.775Z,100727.75
2018-10-03T01:33:11.337Z,100733.64
2018-10-03T01:35:39.936Z,100730.16
2018-10-03T01:38:08.593Z,100733.45
2018-10-03T01:40:37.133Z,100737.23
2018-10-03T01:43:05.750Z,100743.23
2018-10-03T01:45:34.576Z,100739.98
2018-10-03T01:48:03.201Z,100738.33
2018-10-03T01:50:31.729Z,100738.48
2018-10-03T01:53:00.525Z,100728.23
2018-10-03T01:55:29.186Z,100725.13
2018-10-03T01:57:57.781Z,100725.75
2018-10-03T02:00:26.752Z,100722.75
2018-10-03T02:02:55.392Z,100724.06
2018-10-03T02:05:23.968Z,100728.06
2018-10-03T02:07:53.061Z,100734.22
2018-10-03T02:10:21.992Z,100738.06
2018-10-03T02:12:50.809Z,100744.82
2018-10-03T02:15:19.546Z,100737.63
2018-10-03T02:17:48.124Z,100738.27
2018-10-03T02:20:16.716Z,100734.06
2018-10-03T02:22:45.484Z,100733.46
2018-10-03T02:25:14.092Z,100745.09
2018-10-03T02:27:42.688Z,100742.94
2018-10-03T02:30:11.378Z,100736.78
2018-10-03T02:32:39.937Z,100733.00
2018-10-03T02:35:08.529Z,100737.65
2018-10-03T02:37:37.197Z,100738.98
2018-10-03T02:40:05.900Z,100740.98
2018-10-03T02:42:34.632Z,100750.20
2018-10-03T02:45:03.419Z,100747.31
2018-10-03T02:47:31.953Z,100753.64
2018-10-03T02:50:00.531Z,100764.39
2018-10-03T02:52:29.184Z,100759.20
2018-10-03T02:54:57.898Z,100768.65
2018-10-03T02:57:26.493Z,100766.13
2018-10-03T02:59:55.061Z,100764.58
2018-10-03T03:02:23.605Z,100757.55
2018-10-03T03:04:52.165Z,100766.37
2018-10-03T03:07:20.878Z,100772.63
2018-10-03T03:09:49.521Z,100763.44
2018-10-03T03:12:18.340Z,100769.47
2018-10-03T03:14:47.109Z,100767.26
2018-10-03T03:17:15.734Z,100772.45
2018-10-03T03:19:44.320Z,100767.54
2018-10-03T03:22:12.953Z,100759.50
2018-10-03T03:24:41.572Z,100764.55
2018-10-03T03:27:10.216Z,100769.37
2018-10-03T03:29:38.948Z,100772.91
2018-10-03T03:32:07.517Z,100777.00
2018-10-03T03:34:36.054Z,100769.84
2018-10-03T03:37:04.739Z,100766.84
2018-10-03T03:39:33.317Z,100773.83
2018-10-03T03:42:01.873Z,100766.97
2018-10-03T03:44:30.558Z,100768.87
2018-10-03T03:46:59.129Z,100765.87
2018-10-03T03:49:27.678Z,100775.55
2018-10-03T03:51:56.293Z,100778.59
2018-10-03T03:54:24.980Z,100784.48
2018-10-03T03:56:53.665Z,100778.08
2018-10-03T03:59:22.416Z,100781.36
2018-10-03T04:01:51.105Z,100788.03
2018-10-03T04:04:19.693Z,100788.55
2018-10-03T04:06:48.392Z,100784.83
2018-10-03T04:09:16.945Z,100787.70
2018-10-03T04:11:45.613Z,100795.33
2018-10-03T04:14:14.284Z,100792.73
2018-10-03T04:16:43.066Z,100800.05
2018-10-03T04:19:11.702Z,100793.84
2018-10-03T04:21:41.394Z,100800.63
2018-10-03T04:24:11.248Z,100809.34
2018-10-03T04:26:40.470Z,100825.36
2018-10-03T04:29:09.254Z,100825.41
2018-10-03T04:31:38.012Z,100829.36
2018-10-03T04:34:07.093Z,100828.23
2018-10-03T04:36:36.136Z,100829.56
2018-10-03T04:39:06.581Z,100833.72
2018-10-03T04:41:35.813Z,100841.00
2018-10-03T04:44:04.420Z,100836.64
2018-10-03T04:46:33.456Z,100836.28
2018-10-03T04:49:02.111Z,100835.18
2018-10-03T04:51:30.687Z,100836.34
2018-10-03T04:53:59.624Z,100834.19
2018-10-03T04:56:28.306Z,100829.41
2018-10-03T04:58:56.873Z,100822.11
2018-10-03T05:01:25.812Z,100815.58
2018-10-03T05:03:54.390Z,100810.16
2018-10-03T05:06:22.993Z,100825.19
2018-10-03T05:08:51.597Z,100825.05
2018-10-03T05:11:20.323Z,100827.35
2018-10-03T05:13:48.821Z,100827.94
2018-10-03T05:16:17.532Z,100837.80
2018-10-03T05:18:46.172Z,100844.16
2018-10-03T05:21:14.687Z,100841.68
2018-10-03T05:23:43.264Z,100842.38
2018-10-03T05:26:11.934Z,100843.14
2018-10-03T05:28:40.480Z,100848.34
2018-10-03T05:31:09.421Z,100850.83
2018-10-03T05:33:38.229Z,100855.11
2018-10-03T05:36:06.800Z,100859.38
2018-10-03T05:38:35.397Z,100866.69
2018-10-03T05:41:04.041Z,100863.52
2018-10-03T05:43:33.005Z,100880.48
2018-10-03T05:46:01.677Z,100870.05
2018-10-03T05:48:30.278Z,100872.34
2018-10-03T05:50:58.746Z,100880.35
2018-10-03T05:53:27.372Z,100876.08
2018-10-03T05:55:55.905Z,100880.08
2018-10-03T05:58:24.528Z,100874.37
2018-10-03T06:00:53.257Z,100882.73
2018-10-03T06:03:21.924Z,100887.95
2018-10-03T06:05:50.522Z,100893.36
2018-10-03T06:08:19.587Z,100896.84
2018-10-03T06:10:48.233Z,100903.61
2018-10-03T06:13:20.040Z,100908.17
2018-10-03T06:15:48.822Z,100907.56
2018-10-03T06:18:17.480Z,100919.20
2018-10-03T06:20:46.226Z,100922.88
2018-10-03T06:23:14.772Z,100937.86
2018-10-03T06:25:43.363Z,100940.20
2018-10-03T06:28:12.029Z,100944.64
2018-10-03T06:30:40.727Z,100962.01
2018-10-03T06:33:09.246Z,100960.55
2018-10-03T06:35:37.813Z,100963.94
2018-10-03T06:38:06.609Z,100963.88
2018-10-03T06:40:35.453Z,100967.76
2018-10-03T06:43:04.065Z,100971.21
2018-10-03T06:45:32.663Z,100975.55
2018-10-03T06:48:01.258Z,100976.94
2018-10-03T06:50:30.099Z,100977.97
2018-10-03T06:52:58.776Z,100981.47
2018-10-03T06:55:27.456Z,100987.05
2018-10-03T06:57:56.192Z,100989.98
2018-10-03T07:00:24.758Z,100991.49
2018-10-03T07:02:53.344Z,100992.23
2018-10-03T07:05:21.997Z,100992.73
2018-10-03T07:07:50.559Z,100991.17
2018-10-03T07:10:19.121Z,100985.57
2018-10-03T07:12:47.804Z,100988.95
2018-10-03T07:15:16.441Z,100993.79
2018-10-03T07:17:45.017Z,100994.47
2018-10-03T07:20:13.620Z,101000.44
2018-10-03T07:22:42.217Z,101005.16
2018-10-03T07:25:10.766Z,101006.48
2018-10-03T07:27:39.469Z,100998.55
2018-10-03T07:30:08.264Z,101009.16
2018-10-03T07:32:36.873Z,101018.36
2018-10-03T07:35:05.664Z,101024.83
2018-10-03T07:37:34.428Z,101030.66
2018-10-03T07:40:03.031Z,101029.72
2018-10-03T07:42:31.745Z,101031.34
2018-10-03T07:45:00.417Z,101044.58
2018-10-03T07:47:29.113Z,101036.33
2018-10-03T07:49:57.760Z,101037.42
2018-10-03T07:52:27.045Z,101047.06
2018-10-03T07:54:55.690Z,101045.45
2018-10-03T07:57:24.689Z,101048.06
2018-10-03T08:00:02.957Z,101042.48
2018-10-03T08:02:31.572Z,101045.00
2018-10-03T08:05:00.117Z,101042.02
2018-10-03T08:07:28.692Z,101049.28
2018-10-03T08:09:57.347Z,101050.92
2018-10-03T08:12:25.945Z,101047.78
2018-10-03T08:14:54.513Z,101056.02
2018-10-03T08:17:23.265Z,101061.55
2018-10-03T08:19:51.924Z,101058.31
2018-10-03T08:22:20.521Z,101067.45
2018-10-03T08:24:49.129Z,101059.52
2018-10-03T08:27:17.676Z,101056.56
2018-10-03T08:29:46.325Z,101063.61
2018-10-03T08:32:15.115Z,101064.59
2018-10-03T08:34:43.637Z,101070.41
2018-10-03T08:37:12.737Z,101065.84
2018-10-03T08:39:41.678Z,101072.13
2018-10-03T08:42:10.400Z,101069.30
2018-10-03T08:44:39.770Z,101078.53
2018-10-03T08:47:08.482Z,101084.02
2018-10-03T08:49:37.262Z,101082.63
2018-10-03T08:52:05.849Z,101087.00
2018-10-03T08:54:34.441Z,101089.42
2018-10-03T08:57:03.272Z,101095.40
2018-10-03T08:59:31.872Z,101084.59
2018-10-03T09:02:01.143Z,101091.34
2018-10-03T09:04:29.737Z,101101.31
2018-10-03T09:06:58.437Z,101103.49
2018-10-03T09:09:27.176Z,101100.93
2018-10-03T09:11:55.779Z,101101.52
2018-10-03T09:14:24.533Z,101103.60
2018-10-03T09:16:53.198Z,101102.80
2018-10-03T09:19:21.801Z,101103.01
2018-10-03T09:21:50.365Z,101107.56
2018-10-03T09:24:19.314Z,101105.28
2018-10-03T09:26:47.940Z,101113.11
2018-10-03T09:29:16.720Z,101118.02
2018-10-03T09:31:50.274Z,101119.55
2018-10-03T09:34:18.824Z,101121.71
2018-10-03T09:36:47.661Z,101126.01
2018-10-03T09:39:16.248Z,101123.03
2018-10-03T09:41:44.797Z,101132.31
2018-10-03T09:44:13.415Z,101132.77
2018-10-03T09:46:43.073Z,101140.70
2018-10-03T09:49:12.511Z,101140.84
2018-10-03T09:51:41.160Z,101142.38
2018-10-03T09:54:09.791Z,101135.39
2018-10-03T09:56:38.429Z,101140.07
2018-10-03T09:59:07.049Z,101138.81
2018-10-03T10:01:35.784Z,101143.44
2018-10-03T10:04:05.289Z,101139.47
2018-10-03T10:06:35.089Z,101144.52
2018-10-03T10:09:05.700Z,101140.25
2018-10-03T10:11:34.484Z,101142.52
2018-10-03T10:14:03.152Z,101146.13
2018-10-03T10:16:31.769Z,101147.98
2018-10-03T10:19:00.520Z,101139.67
2018-10-03T10:21:29.285Z,101143.92
2018-10-03T10:23:57.850Z,101142.00
2018-10-03T10:26:26.410Z,101151.42
2018-10-03T10:29:01.453Z,101144.70
2018-10-03T10:31:31.574Z,101149.30
2018-10-03T10:34:00.210Z,101152.59
2018-10-03T10:36:28.892Z,101156.81
2018-10-03T10:38:57.489Z,101153.60
2018-10-03T10:41:26.347Z,101156.69
2018-10-03T10:43:54.765Z,101157.39
2018-10-03T10:46:23.404Z,101161.89
2018-10-03T10:48:52.108Z,101158.90
2018-10-03T10:51:20.756Z,101159.56
2018-10-03T10:53:49.394Z,101166.86
2018-10-03T10:56:17.968Z,101163.14
2018-10-03T10:58:46.562Z,101164.68
2018-10-03T11:01:15.127Z,101168.80
2018-10-03T11:03:43.772Z,101167.47
2018-10-03T11:06:12.565Z,101166.02
2018-10-03T11:08:41.368Z,101162.86
2018-10-03T11:11:10.081Z,101161.38
2018-10-03T11:13:39.656Z,101159.24
2018-10-03T11:16:08.733Z,101159.24
2018-10-03T11:18:40.452Z,101157.77
2018-10-03T11:21:09.189Z,101160.41
2018-10-03T11:23:37.985Z,101160.67
2018-10-03T11:26:06.608Z,101164.70
2018-10-03T11:28:36.639Z,101163.36
2018-10-03T11:31:05.339Z,101162.67
2018-10-03T11:33:34.224Z,101160.13
2018-10-03T11:36:02.785Z,101163.14
2018-10-03T11:38:31.368Z,101167.80
2018-10-03T11:41:00.217Z,101163.86
2018-10-03T11:43:28.900Z,101163.06
2018-10-03T11:45:57.489Z,101165.65
2018-10-03T11:48:26.328Z,101165.44
2018-10-03T11:50:54.853Z,101162.23
2018-10-03T11:53:23.465Z,101165.39
2018-10-03T11:55:52.318Z,101165.65
2018-10-03T11:58:20.937Z,101164.78
2018-10-03T12:00:49.588Z,101169.76
2018-10-03T12:03:18.314Z,101172.70
2018-10-03T12:05:46.881Z,101172.61
2018-10-03T12:08:15.617Z,101176.69
2018-10-03T12:10:44.532Z,101170.64
2018-10-03T12:13:13.294Z,101168.63
2018-10-03T12:15:41.853Z,101162.49
2018-10-03T12:18:10.537Z,101159.16
2018-10-03T12:20:39.169Z,101157.33
2018-10-03T12:23:07.811Z,101149.58
2018-10-03T12:25:36.614Z,101145.09
2018-10-03T12:28:05.361Z,101140.01
2018-10-03T12:30:34.029Z,101147.91
2018-10-03T12:33:02.811Z,101147.70
2018-10-03T12:35:33.987Z,101153.72
2018-10-03T12:38:03.477Z,101152.52
2018-10-03T12:40:32.681Z,101144.27
2018-10-03T12:43:01.385Z,101144.05
2018-10-03T12:45:30.288Z,101145.30
2018-10-03T12:47:59.180Z,101137.30
2018-10-03T12:50:28.492Z,101139.59
2018-10-03T12:52:57.121Z,101136.02
2018-10-03T12:55:25.773Z,101137.22
2018-10-03T12:57:54.369Z,101141.74
2018-10-03T13:00:25.632Z,101138.18
2018-10-03T13:02:54.229Z,101135.21
2018-10-03T13:05:22.796Z,101142.42
2018-10-03T13:07:51.651Z,101148.92
2018-10-03T13:10:20.459Z,101141.19
2018-10-03T13:12:49.104Z,101145.91
2018-10-03T13:15:18.037Z,101139.81
2018-10-03T13:17:46.624Z,101141.79
2018-10-03T13:20:15.149Z,101139.61
2018-10-03T13:22:44.865Z,101134.73
2018-10-03T13:25:13.409Z,101136.75
2018-10-03T13:27:42.333Z,101136.62
2018-10-03T13:30:11.065Z,101130.97
2018-10-03T13:32:39.660Z,101120.20
2018-10-03T13:35:08.245Z,101132.78
2018-10-03T13:37:36.950Z,101130.59
2018-10-03T13:40:05.673Z,101131.53
2018-10-03T13:42:34.220Z,101124.16
2018-10-03T13:45:02.900Z,101128.44
2018-10-03T13:47:31.507Z,101132.55
2018-10-03T13:50:00.211Z,101132.91
2018-10-03T13:52:28.961Z,101139.97
2018-10-03T13:54:57.485Z,101140.36
2018-10-03T13:57:26.182Z,101136.09
2018-10-03T13:59:54.805Z,101139.41
2018-10-03T14:02:23.421Z,101131.11
2018-10-03T14:04:52.016Z,101131.46
2018-10-03T14:07:20.704Z,101137.96
2018-10-03T14:09:49.257Z,101135.76
2018-10-03T14:12:17.936Z,101137.11
2018-10-03T14:14:46.913Z,101136.38
2018-10-03T14:17:15.765Z,101132.71
2018-10-03T14:19:44.392Z,101136.22
2018-10-03T14:22:13.127Z,101131.11
2018-10-03T14:24:41.653Z,101134.48
2018-10-03T14:27:10.225Z,101139.47
2018-10-03T14:29:39.006Z,101142.61
2018-10-03T14:32:07.593Z,101147.66
2018-10-03T14:34:36.224Z,101147.98
2018-10-03T14:37:04.784Z,101147.44
2018-10-03T14:39:33.601Z,101151.47
2018-10-03T14:42:02.312Z,101147.90
2018-10-03T14:44:31.655Z,101146.20
2018-10-03T14:47:00.559Z,101148.63
2018-10-03T14:49:29.597Z,101153.20
2018-10-03T14:51:58.678Z,101148.94
2018-10-03T14:54:27.578Z,101150.37
2018-10-03T14:56:56.209Z,101148.03
2018-10-03T14:59:24.918Z,101152.37
2018-10-03T15:01:54.003Z,101152.86
2018-10-03T15:04:22.716Z,101140.44
2018-10-03T15:06:51.418Z,101151.03
2018-10-03T15:09:20.406Z,101157.44
2018-10-03T15:11:49.161Z,101164.19
2018-10-03T15:14:18.194Z,101166.16
2018-10-03T15:16:47.480Z,101169.44
2018-10-03T15:19:16.386Z,101170.20
2018-10-03T15:21:45.553Z,101174.48
2018-10-03T15:24:14.362Z,101176.30
2018-10-03T15:26:43.172Z,101175.88
2018-10-03T15:29:12.011Z,101178.08
2018-10-03T15:31:40.798Z,101180.33
2018-10-03T15:34:09.352Z,101181.73
2018-10-03T15:36:38.590Z,101181.31
2018-10-03T15:39:08.752Z,101182.78
2018-10-03T15:41:37.825Z,101189.63
2018-10-03T15:44:06.556Z,101192.80
2018-10-03T15:46:35.104Z,101193.94
2018-10-03T15:49:03.740Z,101193.94
2018-10-03T15:51:32.329Z,101189.29
2018-10-03T15:54:00.959Z,101197.86
2018-10-03T15:56:29.685Z,101200.17
2018-10-03T15:58:58.398Z,101202.38
2018-10-03T16:01:27.020Z,101207.30
2018-10-03T16:03:56.056Z,101203.66
2018-10-03T16:06:24.725Z,101203.53
2018-10-03T16:08:53.409Z,101193.18
2018-10-03T16:11:23.289Z,101192.05
2018-10-03T16:13:51.952Z,101196.86
2018-10-03T16:16:20.529Z,101209.22
2018-10-03T16:18:49.468Z,101202.77
2018-10-03T16:21:18.180Z,101207.88
2018-10-03T16:23:46.809Z,101210.65
2018-10-03T16:26:15.641Z,101212.67
2018-10-03T16:28:44.270Z,101223.30
2018-10-03T16:31:13.055Z,101220.08
2018-10-03T16:33:41.640Z,101228.16
2018-10-03T16:36:10.305Z,101228.07
2018-10-03T16:38:38.962Z,101235.80
2018-10-03T16:41:07.673Z,101230.14
2018-10-03T16:43:36.322Z,101234.90
2018-10-03T16:46:04.932Z,101233.55
2018-10-03T16:48:33.789Z,101233.52
2018-10-03T16:51:02.318Z,101236.20
2018-10-03T16:53:30.997Z,101243.31
2018-10-03T16:55:59.733Z,101240.23
2018-10-03T16:58:28.349Z,101245.97
2018-10-03T17:00:56.973Z,101241.59
2018-10-03T17:03:25.626Z,101243.63
2018-10-03T17:08:45.915Z,101256.30
2018-10-03T17:11:14.550Z,101261.75
2018-10-03T17:13:54.340Z,101268.52
2018-10-03T17:16:22.995Z,101260.74
2018-10-03T17:18:51.529Z,101268.18
2018-10-03T17:21:20.400Z,101267.77
2018-10-03T17:23:48.989Z,101271.88
2018-10-03T17:26:17.524Z,101268.13
2018-10-03T17:28:46.628Z,101271.47
2018-10-03T17:31:15.200Z,101278.36
2018-10-03T17:33:43.809Z,101279.66
2018-10-03T17:36:12.513Z,101280.47
2018-10-03T17:38:41.206Z,101282.58
2018-10-03T17:41:09.852Z,101283.91
2018-10-03T17:43:38.705Z,101286.03
2018-10-03T17:46:07.644Z,101294.16
2018-10-03T17:48:36.285Z,101292.59
2018-10-03T17:51:05.121Z,101298.92
2018-10-03T17:53:33.761Z,101304.44
2018-10-03T17:56:02.394Z,101299.34
2018-10-03T17:58:31.083Z,101301.47
2018-10-03T18:00:59.717Z,101307.68
2018-10-03T18:03:28.506Z,101316.33
2018-10-03T18:05:57.409Z,101328.78
2018-10-03T18:08:26.085Z,101336.17
2018-10-03T18:10:54.709Z,101342.41
2018-10-03T18:13:23.643Z,101336.08
2018-10-03T18:15:52.748Z,101339.88
2018-10-03T18:18:21.388Z,101342.17
2018-10-03T18:20:50.643Z,101337.41
2018-10-03T18:23:19.755Z,101339.06
2018-10-03T18:25:48.852Z,101346.44
2018-10-03T18:28:17.660Z,101346.67
2018-10-03T18:30:46.790Z,101344.89
2018-10-03T18:33:15.815Z,101349.05
2018-10-03T18:35:45.360Z,101359.32
2018-10-03T18:38:14.359Z,101351.50
2018-10-03T18:40:43.874Z,101354.00
2018-10-03T18:43:12.664Z,101363.19
2018-10-03T18:45:41.262Z,101359.97
2018-10-03T18:48:10.243Z,101366.88
2018-10-03T18:50:39.454Z,101369.42
2018-10-03T18:53:08.635Z,101366.67
2018-10-03T18:55:37.763Z,101374.56
2018-10-03T18:58:07.228Z,101377.73
2018-10-03T19:00:36.228Z,101380.09
2018-10-03T19:03:05.154Z,101376.64
2018-10-03T19:05:34.352Z,101381.99
2018-10-03T19:08:03.329Z,101388.72
2018-10-03T19:10:32.526Z,101390.50
2018-10-03T19:13:01.515Z,101398.61
2018-10-03T19:15:30.668Z,101396.96
2018-10-03T19:18:00.049Z,101394.75
2018-10-03T19:20:29.212Z,101398.39
2018-10-03T19:22:58.345Z,101401.01
2018-10-03T19:25:27.486Z,101403.67
2018-10-03T19:27:56.797Z,101399.68
2018-10-03T19:30:25.976Z,101406.23
2018-10-03T19:32:55.187Z,101405.41
2018-10-03T19:35:25.150Z,101408.42
2018-10-03T19:37:54.265Z,101406.03
2018-10-03T19:40:23.471Z,101410.02
2018-10-03T19:42:52.897Z,101408.30
2018-10-03T19:45:22.049Z,101414.53
2018-10-03T19:47:51.313Z,101421.13
2018-10-03T19:50:20.733Z,101417.16
2018-10-03T19:52:49.961Z,101415.83
2018-10-03T19:55:19.112Z,101422.48
2018-10-03T19:57:48.151Z,101418.52
2018-10-03T20:00:17.880Z,101411.47
2018-10-03T20:02:47.036Z,101413.22
2018-10-03T20:05:16.181Z,101413.74
2018-10-03T20:07:45.059Z,101411.06
2018-10-03T20:10:14.162Z,101408.88
2018-10-03T20:12:43.181Z,101405.24
2018-10-03T20:15:11.906Z,101405.33
2018-10-03T20:17:40.436Z,101413.73
2018-10-03T20:20:09.185Z,101409.80
2018-10-03T20:22:37.758Z,101412.45
2018-10-03T20:25:06.317Z,101417.30
2018-10-03T20:27:35.161Z,101423.44
2018-10-03T20:30:03.797Z,101422.61
2018-10-03T20:32:32.404Z,101423.92
2018-10-03T20:35:01.362Z,101423.49
2018-10-03T20:37:29.948Z,101432.79
2018-10-03T20:39:58.510Z,101429.30
2018-10-03T20:42:27.449Z,101435.86
2018-10-03T20:44:56.006Z,101430.17
2018-10-03T20:47:24.588Z,101428.41
2018-10-03T20:49:53.485Z,101428.86
2018-10-03T20:52:22.123Z,101422.22
2018-10-03T20:54:50.661Z,101424.45
2018-10-03T20:57:19.196Z,101425.77
2018-10-03T20:59:47.709Z,101421.34
2018-10-03T21:02:16.285Z,101415.59
2018-10-03T21:04:44.936Z,101410.77
2018-10-03T21:07:13.701Z,101406.77
2018-10-03T21:09:42.276Z,101409.00
2018-10-03T21:12:11.232Z,101406.78
2018-10-03T21:14:39.768Z,101407.70
2018-10-03T21:17:08.383Z,101414.72
2018-10-03T21:19:37.013Z,101409.44
2018-10-03T21:22:05.604Z,101410.31
2018-10-03T21:24:34.168Z,101413.40
2018-10-03T21:27:03.008Z,101421.33
2018-10-03T21:29:31.525Z,101424.87
2018-10-03T21:32:00.174Z,101420.88
2018-10-03T21:34:28.904Z,101418.67
2018-10-03T21:36:57.506Z,101419.48
2018-10-03T21:39:26.246Z,101427.91
2018-10-03T21:41:54.993Z,101417.77
2018-10-03T21:44:23.497Z,101414.67
2018-10-03T21:46:52.022Z,101414.20
2018-10-03T21:49:20.788Z,101415.97
2018-10-03T21:51:49.334Z,101412.03
2018-10-03T21:54:17.937Z,101408.91
2018-10-03T21:56:47.009Z,101406.73
2018-10-03T21:59:15.584Z,101409.31
2018-10-03T22:01:44.200Z,101415.96
2018-10-03T22:04:12.881Z,101415.08
2018-10-03T22:06:41.597Z,101420.33
2018-10-03T22:09:10.228Z,101419.48
2018-10-03T22:11:38.780Z,101417.19
2018-10-03T22:14:07.360Z,101417.68
2018-10-03T22:16:36.248Z,101414.16
2018-10-03T22:19:04.813Z,101415.88
2018-10-03T22:21:33.452Z,101416.36
2018-10-03T22:24:02.064Z,101414.11
2018-10-03T22:26:30.669Z,101410.59
2018-10-03T22:28:59.304Z,101411.91
2018-10-03T22:31:27.802Z,101414.42
2018-10-03T22:33:56.654Z,101409.86
2018-10-03T22:36:25.200Z,101417.05
2018-10-03T22:38:53.778Z,101415.69
2018-10-03T22:41:22.544Z,101414.94
2018-10-03T22:43:51.096Z,101423.23
2018-10-03T22:46:19.652Z,101422.36
2018-10-03T22:48:48.429Z,101419.33
2018-10-03T22:51:17.100Z,101421.89
2018-10-03T22:53:45.743Z,101418.83
2018-10-03T22:56:14.432Z,101418.70
2018-10-03T22:58:42.985Z,101424.84
2018-10-03T23:01:11.597Z,101423.53
2018-10-03T23:03:40.145Z,101422.20
2018-10-03T23:06:08.785Z,101437.58
2018-10-03T23:08:37.304Z,101436.65
2018-10-03T23:11:05.992Z,101443.32
2018-10-03T23:13:34.561Z,101446.41
2018-10-03T23:16:03.193Z,101443.70
2018-10-03T23:18:31.761Z,101448.52
2018-10-03T23:21:00.264Z,101450.79
2018-10-03T23:23:28.825Z,101451.93
2018-10-03T23:25:57.721Z,101444.47
2018-10-03T23:28:26.340Z,101450.64
2018-10-03T23:30:55.048Z,101449.20
2018-10-03T23:33:23.666Z,101456.12
2018-10-03T23:35:52.289Z,101464.22
2018-10-03T23:38:20.800Z,101454.98
2018-10-03T23:40:49.552Z,101463.36
2018-10-03T23:43:18.253Z,101468.19
2018-10-03T23:45:46.777Z,101470.30
2018-10-03T23:48:15.560Z,101462.98
2018-10-03T23:50:44.121Z,101468.51
2018-10-03T23:53:12.708Z,101475.77
2018-10-03T23:55:41.306Z,101476.73
2018-10-03T23:58:09.954Z,101477.97
